createdAt,value
2019-05-10T00:00:06.154Z,11.10
2019-05-10T00:01:00.205Z,11.10
2019-05-10T00:01:52.955Z,11.10
2019-05-10T00:02:45.890Z,11.00
2019-05-10T00:03:39.058Z,11.10
2019-05-10T00:04:31.918Z,11.10
2019-05-10T00:05:24.815Z,11.10
2019-05-10T00:06:17.892Z,11.00
2019-05-10T00:07:10.989Z,11.10
2019-05-10T00:08:04.545Z,11.10
2019-05-10T00:08:47.630Z,11.00
2019-05-10T00:09:22.034Z,11.00
2019-05-10T00:09:56.276Z,11.00
2019-05-10T00:10:30.511Z,11.10
2019-05-10T00:11:22.910Z,11.10
2019-05-10T00:12:12.858Z,11.10
2019-05-10T00:13:02.196Z,11.10
2019-05-10T00:13:38.896Z,11.10
2019-05-10T00:14:36.001Z,11.10
2019-05-10T00:15:12.274Z,11.10
2019-05-10T00:15:47.806Z,11.10
2019-05-10T00:16:23.722Z,11.10
2019-05-10T00:17:20.444Z,11.10
2019-05-10T00:17:55.879Z,11.10
2019-05-10T00:18:31.386Z,11.10
2019-05-10T00:19:06.760Z,11.10
2019-05-10T00:19:42.303Z,11.10
2019-05-10T00:20:17.363Z,11.10
2019-05-10T00:20:52.946Z,11.10
2019-05-10T00:21:28.503Z,11.10
2019-05-10T00:22:03.767Z,11.10
2019-05-10T00:22:39.111Z,11.10
2019-05-10T00:23:14.374Z,11.10
2019-05-10T00:23:49.702Z,11.10
2019-05-10T00:24:24.940Z,11.10
2019-05-10T00:25:04.574Z,11.10
2019-05-10T00:25:37.106Z,11.10
2019-05-10T00:26:12.341Z,11.10
2019-05-10T00:26:47.628Z,11.10
2019-05-10T00:27:22.688Z,11.10
2019-05-10T00:27:57.922Z,11.10
2019-05-10T00:28:33.162Z,11.10
2019-05-10T00:29:08.446Z,11.10
2019-05-10T00:29:43.817Z,11.10
2019-05-10T00:30:19.117Z,11.10
2019-05-10T00:30:54.637Z,11.10
2019-05-10T00:31:29.876Z,11.10
2019-05-10T00:32:05.294Z,11.10
2019-05-10T00:32:40.542Z,11.10
2019-05-10T00:33:15.883Z,11.10
2019-05-10T00:33:51.156Z,11.10
2019-05-10T00:34:26.211Z,11.10
2019-05-10T00:35:02.726Z,11.10
2019-05-10T00:35:38.039Z,11.10
2019-05-10T00:36:13.911Z,11.10
2019-05-10T00:36:48.967Z,11.10
2019-05-10T00:37:24.195Z,11.10
2019-05-10T00:37:59.445Z,11.10
2019-05-10T00:38:34.690Z,11.10
2019-05-10T00:39:09.738Z,11.10
2019-05-10T00:39:44.971Z,11.10
2019-05-10T00:40:20.510Z,11.10
2019-05-10T00:40:56.023Z,11.10
2019-05-10T00:41:32.155Z,11.10
2019-05-10T00:42:07.521Z,11.10
2019-05-10T00:42:42.788Z,11.10
2019-05-10T00:43:18.684Z,11.10
2019-05-10T00:43:53.746Z,11.10
2019-05-10T00:44:28.985Z,11.10
2019-05-10T00:45:05.032Z,11.10
2019-05-10T00:45:40.259Z,11.10
2019-05-10T00:46:15.313Z,11.10
2019-05-10T00:46:50.530Z,11.10
2019-05-10T00:47:25.771Z,11.10
2019-05-10T00:48:01.016Z,11.10
2019-05-10T00:48:36.054Z,11.10
2019-05-10T00:49:11.305Z,11.10
2019-05-10T00:49:46.627Z,11.10
2019-05-10T00:50:21.853Z,11.10
2019-05-10T00:50:56.912Z,11.10
2019-05-10T00:51:32.378Z,11.10
2019-05-10T00:52:07.610Z,11.10
2019-05-10T00:52:42.847Z,11.10
2019-05-10T00:53:17.895Z,11.10
2019-05-10T00:53:53.118Z,11.10
2019-05-10T00:54:28.856Z,11.10
2019-05-10T00:55:17.923Z,11.10
2019-05-10T00:55:41.802Z,11.10
2019-05-10T00:56:17.314Z,11.10
2019-05-10T00:56:52.546Z,11.10
2019-05-10T00:57:27.769Z,11.10
2019-05-10T00:58:02.834Z,11.10
2019-05-10T00:58:39.391Z,11.10
2019-05-10T00:59:14.616Z,11.10
2019-05-10T00:59:49.853Z,11.10
2019-05-10T01:00:25.183Z,11.10
2019-05-10T01:01:00.436Z,11.10
2019-05-10T01:01:35.659Z,11.10
2019-05-10T01:02:10.896Z,11.10
2019-05-10T01:02:45.977Z,11.10
2019-05-10T01:03:21.890Z,11.00
2019-05-10T01:03:58.097Z,11.00
2019-05-10T01:04:33.793Z,11.00
2019-05-10T01:05:08.830Z,11.10
2019-05-10T01:05:44.437Z,11.00
2019-05-10T01:06:19.702Z,11.00
2019-05-10T01:06:56.594Z,11.00
2019-05-10T01:07:32.058Z,11.00
2019-05-10T01:08:07.303Z,11.00
2019-05-10T01:08:42.544Z,11.00
2019-05-10T01:09:17.778Z,11.00
2019-05-10T01:09:52.835Z,11.00
2019-05-10T01:10:28.061Z,11.00
2019-05-10T01:11:03.284Z,11.00
2019-05-10T01:11:38.519Z,11.00
2019-05-10T01:12:13.579Z,11.00
2019-05-10T01:12:48.914Z,11.00
2019-05-10T01:13:24.150Z,11.00
2019-05-10T01:13:59.374Z,11.00
2019-05-10T01:14:35.727Z,11.00
2019-05-10T01:15:11.023Z,11.00
2019-05-10T01:15:46.885Z,11.00
2019-05-10T01:16:22.348Z,11.00
2019-05-10T01:16:57.425Z,11.00
2019-05-10T01:17:32.643Z,11.00
2019-05-10T01:18:07.879Z,11.00
2019-05-10T01:18:43.119Z,11.00
2019-05-10T01:19:18.513Z,11.00
2019-05-10T01:19:53.795Z,11.00
2019-05-10T01:20:29.080Z,11.00
2019-05-10T01:21:04.346Z,10.90
2019-05-10T01:21:39.495Z,10.90
2019-05-10T01:22:14.748Z,10.90
2019-05-10T01:22:49.964Z,10.90
2019-05-10T01:23:25.227Z,10.90
2019-05-10T01:24:00.272Z,10.90
2019-05-10T01:24:35.862Z,10.90
2019-05-10T01:25:11.099Z,10.90
2019-05-10T01:25:46.363Z,10.90
2019-05-10T01:26:21.478Z,10.90
2019-05-10T01:26:56.716Z,10.90
2019-05-10T01:27:32.312Z,10.90
2019-05-10T01:28:07.594Z,10.90
2019-05-10T01:28:42.726Z,10.90
2019-05-10T01:29:17.976Z,10.90
2019-05-10T01:29:53.524Z,10.90
2019-05-10T01:30:29.348Z,10.90
2019-05-10T01:31:04.415Z,10.90
2019-05-10T01:31:39.648Z,10.90
2019-05-10T01:32:14.956Z,10.90
2019-05-10T01:32:50.246Z,10.90
2019-05-10T01:33:25.576Z,10.90
2019-05-10T01:34:00.836Z,10.90
2019-05-10T01:34:36.350Z,10.90
2019-05-10T01:35:13.166Z,10.90
2019-05-10T01:35:48.211Z,10.90
2019-05-10T01:36:24.526Z,10.90
2019-05-10T01:37:00.322Z,10.90
2019-05-10T01:37:35.525Z,10.90
2019-05-10T01:38:10.574Z,10.90
2019-05-10T01:38:46.859Z,10.90
2019-05-10T01:39:22.064Z,10.90
2019-05-10T01:39:57.276Z,10.90
2019-05-10T01:40:32.307Z,10.90
2019-05-10T01:41:07.547Z,10.90
2019-05-10T01:41:43.031Z,10.90
2019-05-10T01:42:18.230Z,10.90
2019-05-10T01:42:53.255Z,10.90
2019-05-10T01:43:28.558Z,10.90
2019-05-10T01:44:04.000Z,10.90
2019-05-10T01:44:39.215Z,10.90
2019-05-10T01:45:14.311Z,10.90
2019-05-10T01:45:49.518Z,10.90
2019-05-10T01:46:24.731Z,10.90
2019-05-10T01:46:59.931Z,10.90
2019-05-10T01:47:35.922Z,10.90
2019-05-10T01:48:12.110Z,10.90
2019-05-10T01:48:47.322Z,10.90
2019-05-10T01:49:22.789Z,10.90
2019-05-10T01:49:57.811Z,10.90
2019-05-10T01:50:33.035Z,10.90
2019-05-10T01:51:08.263Z,10.90
2019-05-10T01:51:43.479Z,10.90
2019-05-10T01:52:18.773Z,10.90
2019-05-10T01:52:54.285Z,10.90
2019-05-10T01:53:29.859Z,10.90
2019-05-10T01:54:05.074Z,10.90
2019-05-10T01:54:40.127Z,10.90
2019-05-10T01:55:15.335Z,10.90
2019-05-10T01:55:52.467Z,10.90
2019-05-10T01:56:27.476Z,10.90
2019-05-10T01:57:02.506Z,10.90
2019-05-10T01:57:37.730Z,10.90
2019-05-10T01:58:13.600Z,10.90
2019-05-10T01:58:48.811Z,10.90
2019-05-10T01:59:23.830Z,10.90
2019-05-10T01:59:59.116Z,10.90
2019-05-10T02:00:34.374Z,10.90
2019-05-10T02:01:09.579Z,10.90
2019-05-10T02:01:44.612Z,10.90
2019-05-10T02:02:19.837Z,10.90
2019-05-10T02:02:55.037Z,10.90
2019-05-10T02:03:30.250Z,10.80
2019-05-10T02:04:05.287Z,10.80
2019-05-10T02:04:40.584Z,10.90
2019-05-10T02:05:16.083Z,10.90
2019-05-10T02:05:51.292Z,10.90
2019-05-10T02:06:26.657Z,10.80
2019-05-10T02:07:02.166Z,10.90
2019-05-10T02:07:37.375Z,10.90
2019-05-10T02:08:12.904Z,10.80
2019-05-10T02:08:47.957Z,10.80
2019-05-10T02:09:23.175Z,10.90
2019-05-10T02:09:58.710Z,10.80
2019-05-10T02:10:33.927Z,10.90
2019-05-10T02:11:09.203Z,10.80
2019-05-10T02:11:44.450Z,10.90
2019-05-10T02:12:19.757Z,10.80
2019-05-10T02:12:55.240Z,10.90
2019-05-10T02:13:30.276Z,10.80
2019-05-10T02:14:05.536Z,10.80
2019-05-10T02:14:40.729Z,10.80
2019-05-10T02:15:15.945Z,10.80
2019-05-10T02:15:50.999Z,10.80
2019-05-10T02:16:26.554Z,10.80
2019-05-10T02:17:01.754Z,10.80
2019-05-10T02:17:37.058Z,10.80
2019-05-10T02:18:12.083Z,10.80
2019-05-10T02:18:47.618Z,10.90
2019-05-10T02:19:23.188Z,10.80
2019-05-10T02:19:58.507Z,10.80
2019-05-10T02:20:33.775Z,10.90
2019-05-10T02:21:09.952Z,10.80
2019-05-10T02:21:45.163Z,10.90
2019-05-10T02:22:20.719Z,10.90
2019-05-10T02:22:55.757Z,10.80
2019-05-10T02:23:31.318Z,10.90
2019-05-10T02:24:06.819Z,10.90
2019-05-10T02:24:42.096Z,10.80
2019-05-10T02:25:17.116Z,10.80
2019-05-10T02:26:08.408Z,10.80
2019-05-10T02:26:29.254Z,10.90
2019-05-10T02:27:04.469Z,10.90
2019-05-10T02:27:39.487Z,10.90
2019-05-10T02:28:14.684Z,10.90
2019-05-10T02:28:49.895Z,10.90
2019-05-10T02:29:25.138Z,10.90
2019-05-10T02:30:00.407Z,10.90
2019-05-10T02:30:35.883Z,10.90
2019-05-10T02:31:11.091Z,10.90
2019-05-10T02:31:46.354Z,10.90
2019-05-10T02:32:21.675Z,10.80
2019-05-10T02:32:56.886Z,10.90
2019-05-10T02:33:32.075Z,10.90
2019-05-10T02:34:07.717Z,10.90
2019-05-10T02:34:42.746Z,10.90
2019-05-10T02:35:18.346Z,10.90
2019-05-10T02:35:53.548Z,10.90
2019-05-10T02:36:28.771Z,10.90
2019-05-10T02:37:04.090Z,10.90
2019-05-10T02:37:39.556Z,10.90
2019-05-10T02:38:15.006Z,10.90
2019-05-10T02:38:51.670Z,10.90
2019-05-10T02:39:27.663Z,10.90
2019-05-10T02:40:02.872Z,10.90
2019-05-10T02:40:38.447Z,10.90
2019-05-10T02:41:13.663Z,10.90
2019-05-10T02:41:49.032Z,10.90
2019-05-10T02:42:24.243Z,10.90
2019-05-10T02:42:59.460Z,10.90
2019-05-10T02:43:34.669Z,10.90
2019-05-10T02:44:09.702Z,10.90
2019-05-10T02:44:45.177Z,10.90
2019-05-10T02:45:20.403Z,10.90
2019-05-10T02:45:55.971Z,10.90
2019-05-10T02:46:31.006Z,10.90
2019-05-10T02:47:06.297Z,10.90
2019-05-10T02:47:41.604Z,10.90
2019-05-10T02:48:16.811Z,10.90
2019-05-10T02:48:51.844Z,10.90
2019-05-10T02:49:27.136Z,10.90
2019-05-10T02:50:02.387Z,10.90
2019-05-10T02:50:37.887Z,10.90
2019-05-10T02:51:12.906Z,10.90
2019-05-10T02:51:48.127Z,10.90
2019-05-10T02:52:23.673Z,10.90
2019-05-10T02:52:59.211Z,10.90
2019-05-10T02:53:34.246Z,10.90
2019-05-10T02:54:09.443Z,10.90
2019-05-10T02:54:44.647Z,10.90
2019-05-10T02:55:19.864Z,10.90
2019-05-10T02:55:56.231Z,10.90
2019-05-10T02:56:31.859Z,10.90
2019-05-10T02:57:07.240Z,10.90
2019-05-10T02:57:42.465Z,10.90
2019-05-10T02:58:17.779Z,10.90
2019-05-10T02:58:54.765Z,10.80
2019-05-10T02:59:29.972Z,10.90
2019-05-10T03:00:05.570Z,10.80
2019-05-10T03:00:41.463Z,10.90
2019-05-10T03:01:16.965Z,10.90
2019-05-10T03:01:52.661Z,10.80
2019-05-10T03:02:28.139Z,10.80
2019-05-10T03:03:03.880Z,10.80
2019-05-10T03:03:39.083Z,10.80
2019-05-10T03:04:14.738Z,10.80
2019-05-10T03:04:49.939Z,10.80
2019-05-10T03:05:27.046Z,10.90
2019-05-10T03:06:03.201Z,10.80
2019-05-10T03:06:38.571Z,10.80
2019-05-10T03:07:13.791Z,10.80
2019-05-10T03:07:48.808Z,10.80
2019-05-10T03:08:24.991Z,10.80
2019-05-10T03:09:00.203Z,10.80
2019-05-10T03:09:35.755Z,10.80
2019-05-10T03:10:10.906Z,10.80
2019-05-10T03:10:57.173Z,10.80
2019-05-10T03:11:36.270Z,10.80
2019-05-10T03:12:37.372Z,10.80
2019-05-10T03:13:12.791Z,10.80
2019-05-10T03:13:49.015Z,10.80
2019-05-10T03:14:24.290Z,10.80
2019-05-10T03:14:59.319Z,10.80
2019-05-10T03:15:37.803Z,10.80
2019-05-10T03:16:13.011Z,10.90
2019-05-10T03:16:50.596Z,10.90
2019-05-10T03:17:27.044Z,10.90
2019-05-10T03:18:02.522Z,10.90
2019-05-10T03:18:37.716Z,10.90
2019-05-10T03:19:12.928Z,10.90
2019-05-10T03:19:48.212Z,10.90
2019-05-10T03:20:23.458Z,10.80
2019-05-10T03:21:00.428Z,10.80
2019-05-10T03:21:36.674Z,10.80
2019-05-10T03:22:12.110Z,10.80
2019-05-10T03:22:47.325Z,10.70
2019-05-10T03:23:22.884Z,10.70
2019-05-10T03:23:58.093Z,10.70
2019-05-10T03:24:33.127Z,10.70
2019-05-10T03:25:08.355Z,10.60
2019-05-10T03:25:43.697Z,10.60
2019-05-10T03:26:19.217Z,10.60
2019-05-10T03:26:54.272Z,10.60
2019-05-10T03:27:29.491Z,10.60
2019-05-10T03:28:04.964Z,10.60
2019-05-10T03:28:40.250Z,10.60
2019-05-10T03:29:16.440Z,10.60
2019-05-10T03:29:51.728Z,10.50
2019-05-10T03:30:26.941Z,10.50
2019-05-10T03:31:02.160Z,10.50
2019-05-10T03:31:37.186Z,10.50
2019-05-10T03:32:12.817Z,10.50
2019-05-10T03:32:48.102Z,10.50
2019-05-10T03:33:23.506Z,10.50
2019-05-10T03:33:58.597Z,10.50
2019-05-10T03:34:33.815Z,10.50
2019-05-10T03:35:09.101Z,10.50
2019-05-10T03:35:44.361Z,10.50
2019-05-10T03:36:19.466Z,10.50
2019-05-10T03:36:54.682Z,10.50
2019-05-10T03:37:29.918Z,10.50
2019-05-10T03:38:05.135Z,10.50
2019-05-10T03:38:40.174Z,10.50
2019-05-10T03:39:15.475Z,10.50
2019-05-10T03:39:50.678Z,10.50
2019-05-10T03:40:25.931Z,10.50
2019-05-10T03:41:00.994Z,10.50
2019-05-10T03:41:36.218Z,10.40
2019-05-10T03:42:11.436Z,10.40
2019-05-10T03:42:46.725Z,10.40
2019-05-10T03:43:21.762Z,10.40
2019-05-10T03:43:56.978Z,10.40
2019-05-10T03:44:32.279Z,10.40
2019-05-10T03:45:07.531Z,10.40
2019-05-10T03:45:42.574Z,10.40
2019-05-10T03:46:17.798Z,10.40
2019-05-10T03:46:53.016Z,10.40
2019-05-10T03:47:28.234Z,10.40
2019-05-10T03:48:03.299Z,10.40
2019-05-10T03:48:38.571Z,10.40
2019-05-10T03:49:13.856Z,10.40
2019-05-10T03:49:49.177Z,10.40
2019-05-10T03:50:24.212Z,10.40
2019-05-10T03:50:59.551Z,10.40
2019-05-10T03:51:34.762Z,10.40
2019-05-10T03:52:09.983Z,10.40
2019-05-10T03:52:45.050Z,10.40
2019-05-10T03:53:20.287Z,10.40
2019-05-10T03:53:55.510Z,10.40
2019-05-10T03:54:30.732Z,10.40
2019-05-10T03:55:05.855Z,10.40
2019-05-10T03:55:41.096Z,10.40
2019-05-10T03:56:16.330Z,10.40
2019-05-10T03:57:10.756Z,10.40
2019-05-10T03:57:28.274Z,10.40
2019-05-10T03:58:03.565Z,10.40
2019-05-10T03:58:38.782Z,10.40
2019-05-10T03:59:14.006Z,10.40
2019-05-10T03:59:49.363Z,10.40
2019-05-10T04:00:24.872Z,10.40
2019-05-10T04:01:00.080Z,10.40
2019-05-10T04:01:35.372Z,10.40
2019-05-10T04:02:10.668Z,10.40
2019-05-10T04:02:46.185Z,10.40
2019-05-10T04:03:21.706Z,10.40
2019-05-10T04:03:56.922Z,10.40
2019-05-10T04:04:32.007Z,10.40
2019-05-10T04:05:07.517Z,10.40
2019-05-10T04:05:42.795Z,10.40
2019-05-10T04:06:19.288Z,10.40
2019-05-10T04:06:54.639Z,10.40
2019-05-10T04:07:30.824Z,10.40
2019-05-10T04:08:06.287Z,10.40
2019-05-10T04:08:41.512Z,10.40
2019-05-10T04:09:16.843Z,10.30
2019-05-10T04:09:52.063Z,10.30
2019-05-10T04:10:27.820Z,10.30
2019-05-10T04:11:03.039Z,10.30
2019-05-10T04:11:38.079Z,10.30
2019-05-10T04:12:13.304Z,10.30
2019-05-10T04:12:48.823Z,10.30
2019-05-10T04:13:24.044Z,10.30
2019-05-10T04:13:59.084Z,10.30
2019-05-10T04:14:34.321Z,10.30
2019-05-10T04:15:09.656Z,10.30
2019-05-10T04:15:46.043Z,10.30
2019-05-10T04:16:21.751Z,10.30
2019-05-10T04:16:57.042Z,10.40
2019-05-10T04:17:32.250Z,10.40
2019-05-10T04:18:07.467Z,10.30
2019-05-10T04:18:42.750Z,10.40
2019-05-10T04:19:17.962Z,10.40
2019-05-10T04:19:53.432Z,10.40
2019-05-10T04:20:28.644Z,10.40
2019-05-10T04:21:03.718Z,10.40
2019-05-10T04:21:39.174Z,10.40
2019-05-10T04:22:14.673Z,10.40
2019-05-10T04:22:49.982Z,10.40
2019-05-10T04:23:25.099Z,10.40
2019-05-10T04:24:00.392Z,10.30
2019-05-10T04:24:36.648Z,10.30
2019-05-10T04:25:12.045Z,10.30
2019-05-10T04:25:47.085Z,10.30
2019-05-10T04:26:22.317Z,10.30
2019-05-10T04:26:57.886Z,10.30
2019-05-10T04:27:33.464Z,10.40
2019-05-10T04:28:08.560Z,10.30
2019-05-10T04:28:43.777Z,10.30
2019-05-10T04:29:19.371Z,10.30
2019-05-10T04:29:54.626Z,10.30
2019-05-10T04:30:31.801Z,10.40
2019-05-10T04:31:06.959Z,10.40
2019-05-10T04:31:42.178Z,10.40
2019-05-10T04:32:17.776Z,10.40
2019-05-10T04:32:52.804Z,10.40
2019-05-10T04:33:28.039Z,10.40
2019-05-10T04:34:06.314Z,10.40
2019-05-10T04:34:41.521Z,10.40
2019-05-10T04:35:16.569Z,10.40
2019-05-10T04:35:51.790Z,10.40
2019-05-10T04:36:27.023Z,10.40
2019-05-10T04:37:02.321Z,10.40
2019-05-10T04:37:37.651Z,10.40
2019-05-10T04:38:12.875Z,10.40
2019-05-10T04:38:48.788Z,10.40
2019-05-10T04:39:24.760Z,10.40
2019-05-10T04:39:59.804Z,10.40
2019-05-10T04:40:35.007Z,10.40
2019-05-10T04:41:10.506Z,10.40
2019-05-10T04:41:45.747Z,10.40
2019-05-10T04:42:20.800Z,10.40
2019-05-10T04:42:56.012Z,10.40
2019-05-10T04:43:31.215Z,10.40
2019-05-10T04:44:06.500Z,10.40
2019-05-10T04:44:41.624Z,10.40
2019-05-10T04:45:16.879Z,10.40
2019-05-10T04:45:52.345Z,10.40
2019-05-10T04:46:27.573Z,10.40
2019-05-10T04:47:02.631Z,10.40
2019-05-10T04:47:38.325Z,10.40
2019-05-10T04:48:13.545Z,10.40
2019-05-10T04:48:48.991Z,10.40
2019-05-10T04:49:24.060Z,10.40
2019-05-10T04:49:59.343Z,10.40
2019-05-10T04:50:34.588Z,10.40
2019-05-10T04:51:09.819Z,10.50
2019-05-10T04:51:44.899Z,10.50
2019-05-10T04:52:20.132Z,10.50
2019-05-10T04:52:55.351Z,10.40
2019-05-10T04:53:30.570Z,10.50
2019-05-10T04:54:05.845Z,10.50
2019-05-10T04:54:41.108Z,10.50
2019-05-10T04:55:16.381Z,10.50
2019-05-10T04:55:52.009Z,10.50
2019-05-10T04:56:27.299Z,10.50
2019-05-10T04:57:02.839Z,10.50
2019-05-10T04:57:50.099Z,10.50
2019-05-10T04:58:15.971Z,10.50
2019-05-10T04:58:50.991Z,10.50
2019-05-10T04:59:26.741Z,10.50
2019-05-10T05:00:02.274Z,10.50
2019-05-10T05:00:37.559Z,10.50
2019-05-10T05:01:12.667Z,10.50
2019-05-10T05:01:47.911Z,10.50
2019-05-10T05:02:23.483Z,10.50
2019-05-10T05:02:58.715Z,10.50
2019-05-10T05:03:33.988Z,10.50
2019-05-10T05:04:09.203Z,10.50
2019-05-10T05:04:44.689Z,10.50
2019-05-10T05:05:19.941Z,10.50
2019-05-10T05:05:54.975Z,10.50
2019-05-10T05:06:30.183Z,10.50
2019-05-10T05:07:05.429Z,10.50
2019-05-10T05:07:40.665Z,10.60
2019-05-10T05:08:15.696Z,10.50
2019-05-10T05:08:51.246Z,10.60
2019-05-10T05:09:26.487Z,10.60
2019-05-10T05:10:02.031Z,10.50
2019-05-10T05:10:37.713Z,10.60
2019-05-10T05:11:12.988Z,10.50
2019-05-10T05:11:48.844Z,10.60
2019-05-10T05:12:24.372Z,10.50
2019-05-10T05:12:59.695Z,10.50
2019-05-10T05:13:34.939Z,10.50
2019-05-10T05:14:10.176Z,10.50
2019-05-10T05:14:45.399Z,10.60
2019-05-10T05:15:20.446Z,10.60
2019-05-10T05:15:55.662Z,10.60
2019-05-10T05:16:30.927Z,10.60
2019-05-10T05:17:06.150Z,10.60
2019-05-10T05:17:41.251Z,10.60
2019-05-10T05:18:16.467Z,10.60
2019-05-10T05:18:52.056Z,10.60
2019-05-10T05:19:27.262Z,10.60
2019-05-10T05:20:02.651Z,10.60
2019-05-10T05:20:37.882Z,10.60
2019-05-10T05:21:13.141Z,10.60
2019-05-10T05:21:48.343Z,10.60
2019-05-10T05:22:23.382Z,10.60
2019-05-10T05:22:58.835Z,10.60
2019-05-10T05:23:34.236Z,10.60
2019-05-10T05:24:09.623Z,10.60
2019-05-10T05:24:44.952Z,10.60
2019-05-10T05:25:22.152Z,10.60
2019-05-10T05:25:57.807Z,10.60
2019-05-10T05:26:33.234Z,10.60
2019-05-10T05:27:08.292Z,10.60
2019-05-10T05:27:44.363Z,10.60
2019-05-10T05:28:23.358Z,10.60
2019-05-10T05:28:56.888Z,10.60
2019-05-10T05:29:31.952Z,10.60
2019-05-10T05:30:07.420Z,10.60
2019-05-10T05:30:43.087Z,10.70
2019-05-10T05:31:18.475Z,10.60
2019-05-10T05:31:53.932Z,10.60
2019-05-10T05:32:30.645Z,10.60
2019-05-10T05:33:06.046Z,10.70
2019-05-10T05:33:41.728Z,10.60
2019-05-10T05:34:16.772Z,10.70
2019-05-10T05:34:52.231Z,10.60
2019-05-10T05:35:27.639Z,10.60
2019-05-10T05:36:03.970Z,10.60
2019-05-10T05:36:39.011Z,10.60
2019-05-10T05:37:14.455Z,10.70
2019-05-10T05:37:49.867Z,10.60
2019-05-10T05:38:25.623Z,10.70
2019-05-10T05:39:00.684Z,10.70
2019-05-10T05:39:36.088Z,10.70
2019-05-10T05:40:11.507Z,10.70
2019-05-10T05:40:47.466Z,10.70
2019-05-10T05:41:22.511Z,10.70
2019-05-10T05:41:57.934Z,10.70
2019-05-10T05:42:33.327Z,10.70
2019-05-10T05:43:09.850Z,10.70
2019-05-10T05:43:46.469Z,10.70
2019-05-10T05:44:26.283Z,10.70
2019-05-10T05:44:59.810Z,10.70
2019-05-10T05:45:35.702Z,10.70
2019-05-10T05:46:14.341Z,10.70
2019-05-10T05:46:47.931Z,10.70
2019-05-10T05:47:23.691Z,10.70
2019-05-10T05:47:59.079Z,10.70
2019-05-10T05:48:40.361Z,10.70
2019-05-10T05:49:11.472Z,10.70
2019-05-10T05:49:46.982Z,10.80
2019-05-10T05:50:22.377Z,10.80
2019-05-10T05:50:57.419Z,10.80
2019-05-10T05:51:32.959Z,10.80
2019-05-10T05:52:08.844Z,10.80
2019-05-10T05:52:44.266Z,10.80
2019-05-10T05:53:22.380Z,10.80
2019-05-10T05:53:56.429Z,10.80
2019-05-10T05:54:31.884Z,10.80
2019-05-10T05:55:07.311Z,10.80
2019-05-10T05:55:42.440Z,10.80
2019-05-10T05:56:17.862Z,10.80
2019-05-10T05:56:53.943Z,10.80
2019-05-10T05:57:29.628Z,10.80
2019-05-10T05:58:07.074Z,10.80
2019-05-10T05:58:44.813Z,10.90
2019-05-10T05:59:23.665Z,10.90
2019-05-10T06:00:04.162Z,10.90
2019-05-10T06:00:37.855Z,10.90
2019-05-10T06:01:11.179Z,10.90
2019-05-10T06:01:47.552Z,10.90
2019-05-10T06:02:24.024Z,10.90
2019-05-10T06:02:59.359Z,10.90
2019-05-10T06:03:34.763Z,10.90
2019-05-10T06:04:12.703Z,10.90
2019-05-10T06:04:47.734Z,11.00
2019-05-10T06:05:33.870Z,11.00
2019-05-10T06:06:00.763Z,11.00
2019-05-10T06:06:36.175Z,11.00
2019-05-10T06:07:11.965Z,11.00
2019-05-10T06:07:47.398Z,11.00
2019-05-10T06:08:24.990Z,11.00
2019-05-10T06:09:01.699Z,11.00
2019-05-10T06:09:39.456Z,11.00
2019-05-10T06:10:17.420Z,11.00
2019-05-10T06:10:57.804Z,11.00
2019-05-10T06:11:29.900Z,11.00
2019-05-10T06:12:07.486Z,11.00
2019-05-10T06:12:44.424Z,11.00
2019-05-10T06:13:23.231Z,11.00
2019-05-10T06:13:57.242Z,11.00
2019-05-10T06:14:32.678Z,11.00
2019-05-10T06:15:07.808Z,11.10
2019-05-10T06:15:43.208Z,11.00
2019-05-10T06:16:21.980Z,11.10
2019-05-10T06:16:55.755Z,11.10
2019-05-10T06:17:31.728Z,11.10
2019-05-10T06:18:09.673Z,11.00
2019-05-10T06:18:47.250Z,11.10
2019-05-10T06:19:29.407Z,11.10
2019-05-10T06:20:00.967Z,11.10
2019-05-10T06:20:38.224Z,11.10
2019-05-10T06:21:17.808Z,11.10
2019-05-10T06:21:51.619Z,11.10
2019-05-10T06:22:26.755Z,11.10
2019-05-10T06:23:06.809Z,11.10
2019-05-10T06:23:39.271Z,11.10
2019-05-10T06:24:15.830Z,11.10
2019-05-10T06:24:52.473Z,11.20
2019-05-10T06:25:38.798Z,11.10
2019-05-10T06:26:06.591Z,11.20
2019-05-10T06:26:42.231Z,11.10
2019-05-10T06:27:17.258Z,11.20
2019-05-10T06:27:52.748Z,11.20
2019-05-10T06:28:55.198Z,11.20
2019-05-10T06:29:16.366Z,11.20
2019-05-10T06:29:43.187Z,11.30
2019-05-10T06:30:19.059Z,11.20
2019-05-10T06:30:54.486Z,11.30
2019-05-10T06:31:29.896Z,11.30
2019-05-10T06:32:05.283Z,11.30
2019-05-10T06:32:41.104Z,11.30
2019-05-10T06:33:16.518Z,11.30
2019-05-10T06:33:52.942Z,11.30
2019-05-10T06:34:31.980Z,11.30
2019-05-10T06:35:05.747Z,11.40
2019-05-10T06:35:43.411Z,11.30
2019-05-10T06:36:18.831Z,11.40
2019-05-10T06:36:53.878Z,11.40
2019-05-10T06:37:31.313Z,11.40
2019-05-10T06:38:06.402Z,11.40
2019-05-10T06:38:41.815Z,11.40
2019-05-10T06:39:16.846Z,11.40
2019-05-10T06:39:52.506Z,11.40
2019-05-10T06:40:35.778Z,11.40
2019-05-10T06:41:10.328Z,11.50
2019-05-10T06:41:43.428Z,11.40
2019-05-10T06:42:19.142Z,11.40
2019-05-10T06:42:54.628Z,11.50
2019-05-10T06:43:30.083Z,11.40
2019-05-10T06:44:05.214Z,11.40
2019-05-10T06:44:40.646Z,11.40
2019-05-10T06:45:16.436Z,11.40
2019-05-10T06:45:53.831Z,11.40
2019-05-10T06:46:29.698Z,11.50
2019-05-10T06:47:08.378Z,11.50
2019-05-10T06:47:47.642Z,11.50
2019-05-10T06:48:26.902Z,11.50
2019-05-10T06:49:07.405Z,11.60
2019-05-10T06:49:34.504Z,11.60
2019-05-10T06:50:09.946Z,11.70
2019-05-10T06:50:45.838Z,11.70
2019-05-10T06:51:20.875Z,11.70
2019-05-10T06:51:56.274Z,11.70
2019-05-10T06:52:31.670Z,11.70
2019-05-10T06:53:10.694Z,11.70
2019-05-10T06:53:52.067Z,11.70
2019-05-10T06:54:21.638Z,11.80
2019-05-10T06:54:58.794Z,11.80
2019-05-10T06:55:34.344Z,11.80
2019-05-10T06:56:09.384Z,11.80
2019-05-10T06:56:44.778Z,11.80
2019-05-10T06:57:20.182Z,11.80
2019-05-10T06:57:59.155Z,11.80
2019-05-10T06:58:36.457Z,11.80
2019-05-10T06:59:13.294Z,11.80
2019-05-10T06:59:46.807Z,11.80
2019-05-10T07:00:22.238Z,11.80
2019-05-10T07:00:57.651Z,11.90
2019-05-10T07:01:38.179Z,11.90
2019-05-10T07:02:10.183Z,11.90
2019-05-10T07:02:45.591Z,11.90
2019-05-10T07:03:20.695Z,11.90
2019-05-10T07:03:56.111Z,11.90
2019-05-10T07:04:35.183Z,12.00
2019-05-10T07:05:08.631Z,12.00
2019-05-10T07:05:43.659Z,12.10
2019-05-10T07:06:19.076Z,12.10
2019-05-10T07:06:54.479Z,12.10
2019-05-10T07:07:43.383Z,12.10
2019-05-10T07:08:14.214Z,12.10
2019-05-10T07:08:45.917Z,12.20
2019-05-10T07:09:21.119Z,12.20
2019-05-10T07:10:05.714Z,12.20
2019-05-10T07:10:33.889Z,12.20
2019-05-10T07:11:09.481Z,12.30
2019-05-10T07:11:44.897Z,12.30
2019-05-10T07:12:20.296Z,12.30
2019-05-10T07:12:57.183Z,12.30
2019-05-10T07:13:32.488Z,12.30
2019-05-10T07:14:07.910Z,12.30
2019-05-10T07:14:45.994Z,12.30
2019-05-10T07:15:20.019Z,12.30
2019-05-10T07:15:55.687Z,12.30
2019-05-10T07:16:31.347Z,12.30
2019-05-10T07:17:06.740Z,12.30
2019-05-10T07:17:46.974Z,12.40
2019-05-10T07:18:22.554Z,12.30
2019-05-10T07:19:00.668Z,12.40
2019-05-10T07:19:40.677Z,12.40
2019-05-10T07:20:10.352Z,12.40
2019-05-10T07:20:47.174Z,12.40
2019-05-10T07:21:22.587Z,12.40
2019-05-10T07:21:58.334Z,12.50
2019-05-10T07:22:33.372Z,12.50
2019-05-10T07:23:08.813Z,12.50
2019-05-10T07:23:46.586Z,12.60
2019-05-10T07:24:26.797Z,12.50
2019-05-10T07:25:04.535Z,12.50
2019-05-10T07:25:37.928Z,12.50
2019-05-10T07:26:17.656Z,12.60
2019-05-10T07:26:50.185Z,12.60
2019-05-10T07:27:25.211Z,12.60
2019-05-10T07:28:00.621Z,12.60
2019-05-10T07:28:36.043Z,12.60
2019-05-10T07:29:11.524Z,12.60
2019-05-10T07:29:46.570Z,12.60
2019-05-10T07:30:31.485Z,12.70
2019-05-10T07:31:07.955Z,12.70
2019-05-10T07:31:43.683Z,12.70
2019-05-10T07:32:22.292Z,12.70
2019-05-10T07:32:59.860Z,12.80
2019-05-10T07:33:37.169Z,12.80
2019-05-10T07:34:15.596Z,12.80
2019-05-10T07:34:48.000Z,12.80
2019-05-10T07:35:24.324Z,12.80
2019-05-10T07:35:59.731Z,12.80
2019-05-10T07:36:35.154Z,12.80
2019-05-10T07:37:11.188Z,12.80
2019-05-10T07:37:47.830Z,12.80
2019-05-10T07:38:30.973Z,12.80
2019-05-10T07:39:02.811Z,12.80
2019-05-10T07:39:38.293Z,12.80
2019-05-10T07:40:13.774Z,12.80
2019-05-10T07:40:49.209Z,12.80
2019-05-10T07:41:26.588Z,12.80
2019-05-10T07:42:06.595Z,12.80
2019-05-10T07:42:39.866Z,12.80
2019-05-10T07:43:24.805Z,12.80